JP-0085 weather

CLOSED Nakajima Handa Aerodrome
Handa, Aichi Prefecture, Japan

Public forecast

Using degrees Celsius for public forecast. Weather courtesy of forecast.io.

METAR (pilot weather report)

Closest report is Chubu Centrair International Airport, 7.9 nm (14.6 km) WSW. Retrieved 2019/07/16 15:30 UTC (0 seconds ago):

RJGG 161530Z 12008KT 8000 SHRA FEW006 SCT015 FEW020CB BKN025 24/22 Q1012 TEMPO 3000 TSRA BR FEW005 BKN008 BKN020 FEW020CB

TAF (pilot weather forecast)

Closest forecast is Chubu Centrair International Airport, 7.9 nm (14.6 km) WSW. Retrieved 2019/07/16 12:30 UTC (3 hours ago):

TAF RJGG 161108Z 1612/1718 12006KT 8000 -SHRA FEW008 BKN015 TEMPO 1612/1621 4000 -SHRA BR FEW005 BKN008 BECMG 1616/1618 01004KT BECMG 1700/1703 16010KT